Airport ID:KEDC
Update Time (UTC):19 MAR 18 12:19
Wind Speed (Knots):CALM
Wind Direction (Magnetic):
Temperature (°C):16
Dew Point (°C):7
Humidity (%):54
Altimeter (inHg):29.8
Density Altitude (Feet):
Visibility (Miles):10
Clouds (Hundreds of feet):BKN037
METAR:METAR KEDC 191215Z AUTO 00000KT 10SM BKN037 16/07 A2980 RMK AO2

The data displayed is for advisory purposes only and is not to be used for flight planning or operations.

This page is not automatically refreshed. Reload the page to see current data.